createdAt,value
2023-05-05T00:25:15.176Z,2.70
2023-05-05T00:27:42.221Z,2.50
2023-05-05T00:30:10.766Z,2.70
2023-05-05T00:32:37.904Z,3.00
2023-05-05T00:35:06.441Z,3.10
2023-05-05T00:37:33.383Z,3.30
2023-05-05T00:40:00.325Z,2.90
2023-05-05T00:42:27.374Z,2.80
2023-05-05T00:44:54.522Z,2.40
2023-05-05T00:47:21.576Z,2.00
2023-05-05T00:49:48.616Z,2.90
2023-05-05T00:52:15.780Z,3.60
2023-05-05T00:54:42.712Z,2.60
2023-05-05T00:57:09.655Z,2.40
2023-05-05T00:59:36.720Z,2.90
2023-05-05T01:02:03.783Z,2.30
2023-05-05T01:04:30.906Z,2.90
2023-05-05T01:07:30.606Z,3.50
2023-05-05T01:10:19.745Z,2.70
2023-05-05T01:12:47.751Z,2.90
2023-05-05T01:15:17.963Z,2.70
2023-05-05T01:17:56.183Z,2.90
2023-05-05T01:20:46.170Z,2.60
2023-05-05T01:23:19.272Z,2.50
2023-05-05T01:26:25.919Z,2.60
2023-05-05T01:29:30.855Z,3.00
2023-05-05T01:32:00.441Z,3.60
2023-05-05T01:34:33.345Z,3.10
2023-05-05T01:37:08.483Z,2.60
2023-05-05T01:39:35.629Z,2.50
2023-05-05T01:42:05.515Z,2.30
2023-05-05T01:44:33.717Z,3.00
2023-05-05T01:47:01.078Z,2.40
2023-05-05T01:49:28.211Z,2.20
2023-05-05T01:51:56.288Z,2.70
2023-05-05T01:54:24.461Z,3.30
2023-05-05T01:56:51.403Z,2.80
2023-05-05T01:59:18.457Z,2.80
2023-05-05T02:01:47.339Z,2.30
2023-05-05T02:04:14.641Z,2.70
2023-05-05T02:06:41.640Z,3.00
2023-05-05T02:09:09.915Z,2.50
2023-05-05T02:11:36.967Z,2.30
2023-05-05T02:14:04.050Z,2.60
2023-05-05T02:16:31.366Z,2.70
2023-05-05T02:18:59.639Z,3.00
2023-05-05T02:21:26.691Z,2.50
2023-05-05T02:23:53.738Z,2.50
2023-05-05T02:26:22.118Z,2.20
2023-05-05T02:28:53.152Z,3.00
2023-05-05T02:31:21.553Z,2.80
2023-05-05T02:33:48.690Z,2.80
2023-05-05T02:36:23.921Z,2.40
2023-05-05T02:39:01.346Z,2.60
2023-05-05T02:41:29.996Z,2.50
2023-05-05T02:43:57.655Z,3.20
2023-05-05T02:46:28.192Z,2.80
2023-05-05T02:48:55.453Z,2.70
2023-05-05T02:51:22.579Z,3.00
2023-05-05T02:53:49.633Z,3.00
2023-05-05T02:56:23.129Z,3.50
2023-05-05T02:59:25.194Z,3.30
2023-05-05T03:02:00.944Z,2.40
2023-05-05T03:04:37.825Z,3.00
2023-05-05T03:07:09.751Z,2.80
2023-05-05T03:10:00.212Z,3.00
2023-05-05T03:12:28.471Z,2.40
2023-05-05T03:15:10.971Z,3.30
2023-05-05T03:17:38.395Z,2.60
2023-05-05T03:20:06.624Z,2.60
2023-05-05T03:22:39.168Z,2.60
2023-05-05T03:25:08.587Z,2.80
2023-05-05T03:27:35.824Z,2.70
2023-05-05T03:30:03.801Z,2.70
2023-05-05T03:32:31.642Z,2.70
2023-05-05T03:34:58.703Z,2.90
2023-05-05T03:37:29.644Z,2.70
2023-05-05T03:39:57.417Z,3.10
2023-05-05T03:42:24.448Z,2.90
2023-05-05T03:44:53.679Z,2.90
2023-05-05T03:47:21.104Z,2.80
2023-05-05T03:49:48.151Z,2.50
2023-05-05T03:52:15.180Z,2.90
2023-05-05T03:54:43.348Z,2.50
2023-05-05T03:57:10.299Z,2.40
2023-05-05T03:59:37.194Z,2.40
2023-05-05T04:02:04.552Z,2.40
2023-05-05T04:04:31.668Z,2.30
2023-05-05T04:10:00.571Z,3.00
2023-05-05T04:12:27.721Z,4.40
2023-05-05T04:14:55.207Z,3.70
2023-05-05T04:17:22.533Z,3.20
2023-05-05T04:19:49.998Z,3.40
2023-05-05T04:22:17.432Z,3.20
2023-05-05T04:24:44.697Z,3.30
2023-05-05T04:27:11.852Z,2.80
2023-05-05T04:29:39.818Z,3.20
2023-05-05T04:32:07.372Z,2.70
2023-05-05T04:34:34.419Z,3.50
2023-05-05T04:37:01.574Z,3.10
2023-05-05T04:39:31.584Z,3.30
2023-05-05T04:41:58.937Z,3.50
2023-05-05T04:44:25.980Z,3.00
2023-05-05T04:46:53.170Z,2.60
2023-05-05T04:49:20.694Z,2.90
2023-05-05T04:51:47.942Z,3.30
2023-05-05T04:54:15.094Z,3.40
2023-05-05T04:56:42.961Z,3.10
2023-05-05T04:59:09.921Z,3.40
2023-05-05T05:01:38.585Z,4.00
2023-05-05T05:04:05.775Z,4.10
2023-05-05T05:06:32.986Z,3.20
2023-05-05T05:09:00.755Z,3.80
2023-05-05T05:11:27.920Z,3.60
2023-05-05T05:13:54.946Z,3.30
2023-05-05T05:16:22.138Z,2.90
2023-05-05T05:18:49.145Z,3.70
2023-05-05T05:21:16.508Z,3.20
2023-05-05T05:23:44.060Z,3.40
2023-05-05T05:26:11.209Z,3.40
2023-05-05T05:28:38.563Z,3.90
2023-05-05T05:31:05.717Z,3.70
2023-05-05T05:33:32.859Z,3.40
2023-05-05T05:35:59.814Z,3.20
2023-05-05T05:38:27.266Z,3.40
2023-05-05T05:40:56.459Z,3.90
2023-05-05T05:43:23.498Z,3.80
2023-05-05T05:45:50.673Z,4.40
2023-05-05T05:48:18.214Z,3.70
2023-05-05T05:50:45.264Z,3.70
2023-05-05T05:53:12.298Z,2.90
2023-05-05T05:55:41.251Z,3.60
2023-05-05T05:58:08.709Z,3.50
2023-05-05T06:00:37.048Z,2.90
2023-05-05T06:03:05.313Z,3.20
2023-05-05T06:05:34.596Z,3.90
2023-05-05T06:08:01.562Z,3.30
2023-05-05T06:10:29.035Z,3.50
2023-05-05T06:13:03.214Z,3.80
2023-05-05T06:15:30.892Z,4.00
2023-05-05T06:17:58.972Z,4.20
2023-05-05T06:20:26.628Z,3.70
2023-05-05T06:22:53.761Z,4.50
2023-05-05T06:25:21.618Z,3.50
2023-05-05T06:27:49.381Z,3.90
2023-05-05T06:30:16.640Z,4.00
2023-05-05T06:32:43.819Z,3.40
2023-05-05T06:35:10.953Z,3.70
2023-05-05T06:37:38.190Z,3.50
2023-05-05T06:40:06.977Z,4.00
2023-05-05T06:42:34.350Z,3.70
2023-05-05T06:45:04.665Z,4.20
2023-05-05T06:47:31.606Z,4.20
2023-05-05T06:49:58.643Z,4.60
2023-05-05T06:52:26.108Z,4.70
2023-05-05T06:54:53.148Z,5.10
2023-05-05T06:57:20.219Z,5.10
2023-05-05T06:59:47.253Z,5.60
2023-05-05T07:02:14.189Z,5.10
2023-05-05T07:04:41.642Z,5.40
2023-05-05T07:07:08.590Z,6.10
2023-05-05T07:09:35.639Z,5.20
2023-05-05T07:12:03.806Z,5.70
2023-05-05T07:14:30.894Z,6.00
2023-05-05T07:16:58.165Z,5.70
2023-05-05T07:19:25.352Z,5.70
2023-05-05T07:21:52.294Z,5.80
2023-05-05T07:24:19.237Z,6.00
2023-05-05T07:26:46.224Z,5.70
2023-05-05T07:29:13.677Z,5.70
2023-05-05T07:31:40.652Z,6.30
2023-05-05T07:34:07.654Z,7.30
2023-05-05T07:36:34.555Z,7.20
2023-05-05T07:39:01.516Z,7.40
2023-05-05T07:41:28.589Z,7.80
2023-05-05T07:43:55.545Z,8.70
2023-05-05T07:46:22.473Z,8.80
2023-05-05T07:48:49.359Z,7.20
2023-05-05T07:51:16.249Z,7.90
2023-05-05T07:53:43.217Z,6.90
2023-05-05T07:56:10.170Z,7.40
2023-05-05T07:58:37.124Z,7.10
2023-05-05T08:01:06.552Z,6.80
2023-05-05T08:03:33.836Z,5.70
2023-05-05T08:09:22.713Z,5.70
2023-05-05T08:11:49.866Z,6.40
2023-05-05T08:14:17.331Z,5.30
2023-05-05T08:16:44.263Z,5.50
2023-05-05T08:19:21.511Z,5.10
2023-05-05T08:21:56.388Z,4.70
2023-05-05T08:24:23.432Z,4.50
2023-05-05T08:26:50.471Z,4.40
2023-05-05T08:29:18.234Z,4.30
2023-05-05T08:31:45.249Z,4.00
2023-05-05T08:34:12.633Z,4.30
2023-05-05T09:09:07.047Z,2.70
2023-05-05T09:11:34.288Z,2.20
2023-05-05T09:14:02.063Z,2.20
2023-05-05T09:16:29.149Z,2.40
2023-05-05T09:19:03.939Z,2.30
2023-05-05T09:21:31.378Z,2.00
2023-05-05T09:24:11.466Z,2.50
2023-05-05T09:26:46.253Z,2.20
2023-05-05T09:29:22.824Z,2.00
2023-05-05T09:32:08.840Z,2.00
2023-05-05T09:34:38.242Z,2.10
2023-05-05T09:37:06.286Z,2.20
2023-05-05T09:39:33.406Z,2.40
2023-05-05T09:42:00.689Z,2.80
2023-05-05T09:44:38.382Z,3.40
2023-05-05T09:47:07.321Z,3.20
2023-05-05T09:49:41.999Z,2.90
2023-05-05T09:52:15.909Z,3.00
2023-05-05T09:54:43.569Z,3.10
2023-05-05T09:57:25.934Z,3.50
2023-05-05T10:00:00.928Z,3.20
2023-05-05T10:02:36.045Z,2.90
2023-05-05T10:05:07.242Z,2.50
2023-05-05T10:07:35.475Z,2.20
2023-05-05T10:10:37.728Z,2.90
2023-05-05T10:13:05.406Z,2.40
2023-05-05T10:15:32.539Z,2.40
2023-05-05T10:18:07.819Z,2.80
2023-05-05T10:20:36.582Z,2.80
2023-05-05T10:23:05.776Z,2.90
2023-05-05T10:25:40.090Z,3.20
2023-05-05T10:28:06.920Z,3.20
2023-05-05T10:30:36.734Z,2.90
2023-05-05T10:35:41.181Z,2.60
2023-05-05T10:38:12.009Z,2.80
2023-05-05T10:40:45.088Z,2.50
2023-05-05T10:43:15.014Z,2.70
2023-05-05T10:45:42.501Z,2.70
2023-05-05T10:48:18.258Z,2.80
2023-05-05T10:50:49.481Z,2.90
2023-05-05T10:53:28.912Z,2.80
2023-05-05T10:56:32.524Z,2.30
2023-05-05T10:59:00.844Z,2.40
2023-05-05T11:01:32.613Z,2.60
2023-05-05T11:04:22.333Z,2.50
2023-05-05T11:07:20.825Z,2.20
2023-05-05T11:09:55.171Z,2.40
2023-05-05T11:12:22.260Z,2.30
2023-05-05T11:15:27.588Z,2.30
2023-05-05T11:17:56.002Z,1.90
2023-05-05T11:20:42.998Z,2.20
2023-05-05T11:23:13.438Z,2.30
2023-05-05T11:25:43.749Z,2.30
2023-05-05T11:28:14.180Z,2.50
2023-05-05T11:30:57.531Z,2.00
2023-05-05T11:33:38.901Z,2.50
2023-05-05T11:36:07.671Z,2.00
2023-05-05T11:38:46.707Z,2.20
2023-05-05T11:41:20.726Z,1.80
2023-05-05T11:43:48.064Z,2.00
2023-05-05T11:46:16.333Z,1.70
2023-05-05T11:48:53.111Z,1.70
2023-05-05T11:51:21.583Z,1.80
2023-05-05T11:53:49.050Z,2.30
2023-05-05T11:56:21.328Z,1.90
2023-05-05T11:58:48.775Z,1.80
2023-05-05T12:01:15.636Z,1.90
2023-05-05T12:03:44.859Z,2.20
2023-05-05T12:06:12.268Z,2.10
2023-05-05T12:08:40.293Z,1.90
2023-05-05T12:11:08.332Z,1.80
2023-05-05T12:13:35.667Z,1.90
2023-05-05T12:16:12.791Z,1.90
2023-05-05T12:18:40.405Z,2.20
2023-05-05T12:21:19.734Z,1.70
2023-05-05T12:23:46.588Z,2.00
2023-05-05T12:26:30.430Z,1.80
2023-05-05T12:28:58.189Z,1.40
2023-05-05T12:31:51.950Z,1.90
2023-05-05T12:34:20.851Z,1.70
2023-05-05T12:36:47.894Z,1.70
2023-05-05T12:39:16.079Z,1.80
2023-05-05T12:43:33.017Z,1.90
2023-05-05T12:46:01.988Z,2.00
2023-05-05T12:48:29.441Z,2.00
2023-05-05T12:51:20.155Z,1.90
2023-05-05T12:53:48.219Z,2.20
2023-05-05T12:56:35.473Z,2.30
2023-05-05T12:59:04.558Z,2.30
2023-05-05T13:01:31.889Z,1.50
2023-05-05T13:04:13.085Z,1.90
2023-05-05T13:06:44.613Z,1.90
2023-05-05T13:09:28.195Z,2.10
2023-05-05T13:11:55.200Z,1.90
2023-05-05T13:14:23.091Z,1.90
2023-05-05T13:16:50.523Z,1.90
2023-05-05T13:19:17.764Z,1.70
2023-05-05T13:21:44.714Z,1.50
2023-05-05T13:24:21.366Z,1.70
2023-05-05T13:26:53.767Z,1.70
2023-05-05T13:29:20.813Z,1.70
2023-05-05T13:31:48.027Z,1.50
2023-05-05T13:34:15.204Z,2.00
2023-05-05T13:36:42.249Z,1.80
2023-05-05T13:39:09.302Z,1.30
2023-05-05T13:41:36.355Z,1.80
2023-05-05T13:44:03.388Z,1.80
2023-05-05T13:46:30.898Z,1.90
2023-05-05T13:48:57.894Z,1.80
2023-05-05T13:51:24.935Z,1.70
2023-05-05T13:53:52.625Z,1.80
2023-05-05T13:56:19.638Z,1.90
2023-05-05T13:58:46.692Z,1.50
2023-05-05T14:01:13.684Z,2.00
2023-05-05T14:03:41.000Z,1.80
2023-05-05T14:06:09.299Z,1.40
2023-05-05T14:08:36.622Z,1.90
2023-05-05T14:11:03.973Z,1.40
2023-05-05T14:13:31.197Z,1.50
2023-05-05T14:15:58.675Z,1.30
2023-05-05T14:18:26.264Z,2.00
2023-05-05T14:20:53.487Z,1.90
2023-05-05T14:23:20.631Z,1.90
2023-05-05T14:25:47.886Z,1.50
2023-05-05T14:28:15.246Z,1.50
2023-05-05T14:30:42.288Z,1.80
2023-05-05T14:33:09.333Z,1.50
2023-05-05T14:35:36.281Z,3.90
2023-05-05T14:38:03.425Z,2.60
2023-05-05T14:40:31.392Z,5.00
2023-05-05T14:42:58.440Z,6.10
2023-05-05T14:45:26.512Z,2.30
2023-05-05T14:47:53.470Z,2.10
2023-05-05T14:50:20.910Z,1.40
2023-05-05T14:52:47.856Z,1.30
2023-05-05T14:55:14.804Z,1.40
2023-05-05T14:57:41.854Z,1.40
2023-05-05T15:00:11.123Z,1.50
2023-05-05T15:02:38.189Z,1.60
2023-05-05T15:05:05.996Z,1.60
2023-05-05T15:07:33.320Z,1.40
2023-05-05T15:10:00.462Z,1.30
2023-05-05T15:12:28.129Z,1.40
2023-05-05T15:14:55.784Z,1.50
2023-05-05T15:17:22.997Z,1.00
2023-05-05T15:19:49.977Z,2.00
2023-05-05T15:22:17.023Z,1.60
2023-05-05T15:24:43.969Z,1.40
2023-05-05T15:27:11.420Z,1.80
2023-05-05T15:29:38.782Z,1.80
2023-05-05T15:32:06.088Z,2.30
2023-05-05T15:34:33.175Z,1.60
2023-05-05T15:37:00.287Z,2.40
2023-05-05T15:39:27.382Z,1.80
2023-05-05T15:41:54.309Z,1.70
2023-05-05T15:44:21.363Z,2.00
2023-05-05T15:46:50.347Z,2.40
2023-05-05T15:49:17.723Z,4.20
2023-05-05T15:51:44.646Z,3.00
2023-05-05T15:54:11.597Z,3.00
2023-05-05T15:56:38.637Z,2.90
2023-05-05T15:59:05.701Z,2.40
2023-05-05T16:01:33.813Z,2.30
2023-05-05T16:04:01.417Z,2.20
2023-05-05T16:06:28.782Z,2.30
2023-05-05T16:08:58.643Z,2.10
2023-05-05T16:11:26.653Z,2.30
2023-05-05T16:13:53.824Z,2.70
2023-05-05T16:16:21.177Z,2.40
2023-05-05T16:18:48.306Z,2.80
2023-05-05T16:21:15.367Z,2.80
2023-05-05T16:23:42.413Z,2.50
